Pagrindinis puslapis
METAR-TAF:

METAR-TAF

Oro uostai :

Talkeetna, Aliaska, Jungtinės Amerikos Valstijos

platuma: 62-19-14N, ilguma: 150-05-37W, Aukštis: 109 m

Dabartinis oras

Ataskaita buvo paskelbta 55 minutes, ne 17:53 UTC
Vėjas 6 kt iš Šiaurės/Šiaurės Rytų
Temperatūra -3°C
Drėgmė 46%
Slėgis 1032 hPa
Matomumas: 16.1 km
Giedras dangus

METAR: PATK 221753Z 02006KT 10SM CLR M03/M13 A3048 RMK AO2 SLP328 T10281128 11006 21033

Laikas: 10:48 (18:48 UTC)

Prognozė

Ataskaita buvo paskelbta 1 valandą ir 18 minutes, ne 17:30 UTC
Prognozė galioja nuo 22 metu 18 UTC su 23 metu 18 UTC
Vėjas 10 kt iš Šiaurės/Šiaurės Rytų
Matomumas: 10 km
Giedras dangus

TAF: PATK 221730Z 2218/2318 02010KT P6SM SKC

Orai ataskaitas ir orų prognozės (METAR, TAF).

turimą stotys yra geltonos ir raudonos taškus žemėlapyje.

Perkelti pele per norėdami pamatyti stoties vardą.

Tada spustelėkite, norėdami matyti oro stebėjimo ir prognozės.

Norėdami pakeisti žemėlapį: spustelėkite ant žalios mygtukų su juodo kryžiaus žemyn,; žalią mygtuką su brūkšneliu, jei norite nutolinti; arba žalių rodyklių gretimoms žemėlapius.


METAR-TAF: